Home > Products > Valid Products > TAF

000
FTUS41 KPHI 031424 AAB
TAFPNE
TAF AMD
KPNE 031424Z 0314/0412 06008KT P6SM OVC008
      TEMPO 0314/0316 2SM -DZ BR
     FM032000 07008KT P6SM SCT008 OVC015
     FM040100 07006KT P6SM OVC005=



000
FTUS41 KPHI 031423 AAB
TAFPHL
TAF AMD
KPHL 031423Z 0314/0418 06008KT P6SM OVC008
      TEMPO 0314/0316 2SM -DZ BR
     FM032000 08008KT P6SM SCT008 OVC015
     FM040100 06006KT P6SM OVC005
     FM041300 07006KT 6SM BR VCSH OVC007=



000
FTUS41 KPHI 031337 AAA
TAFACY
TAF AMD
KACY 031337Z 0314/0412 07008KT P6SM OVC004
     FM031700 06008KT P6SM OVC007
     FM032100 06005KT P6SM OVC010
     FM040100 04005KT 5SM BR OVC005=



000
FTUS41 KPHI 031337 AAA
TAFMIV
TAF AMD
KMIV 031337Z 0314/0412 04008KT P6SM OVC003
     FM031700 04008KT P6SM OVC006
     FM032100 01006KT P6SM SCT008 OVC015
     FM040100 VRB02KT 5SM BR OVC005=



000
FTUS41 KPHI 031306 AAA
TAFILG
TAF AMD
KILG 031306Z 0313/0412 05008KT P6SM OVC007
     FM032000 06006KT P6SM SCT008 OVC015
     FM040100 06006KT P6SM OVC005=



000
FTUS41 KPHI 031305 AAA
TAFPHL
TAF AMD
KPHL 031305Z 0313/0418 06008KT P6SM OVC008
     FM032000 08008KT P6SM SCT008 OVC015
     FM040100 06006KT P6SM OVC005
     FM041300 07006KT 6SM BR VCSH OVC007=



000
FTUS41 KPHI 031304 AAA
TAFPNE
TAF AMD
KPNE 031304Z 0313/0412 06008KT P6SM OVC008
     FM032000 07008KT P6SM SCT008 OVC015
     FM040100 07006KT P6SM OVC005=



000
FTUS41 KPHI 031304 AAA
TAFTTN
TAF AMD
KTTN 031304Z 0313/0412 06008KT P6SM OVC008
     FM032000 07008KT P6SM OVC010
     FM040100 07006KT 5SM BR OVC005=



000
FTUS41 KPHI 031302 AAA
TAFRDG
TAF AMD
KRDG 031302Z 0313/0412 03006KT P6SM OVC012
      TEMPO 0313/0317 OVC008
     FM032000 09006KT P6SM OVC015
     FM040100 VRB03KT 6SM BR OVC005=



000
FTUS41 KPHI 031132
TAFMIV
TAF
KMIV 031132Z 0312/0412 10008KT 3SM -RA BR OVC003
      TEMPO 0312/0315 5SM -RA BR OVC006
     FM031500 04008KT 6SM BR VCSH OVC005
     FM032100 01006KT P6SM SCT008 OVC015
     FM040100 VRB02KT 5SM BR OVC005=



000
FTUS41 KPHI 031132
TAFILG
TAF
KILG 031132Z 0312/0412 06008KT P6SM -RA OVC005
      TEMPO 0312/0314 4SM -RA BR
     FM031500 03008KT 6SM BR VCSH OVC007
     FM032000 06006KT P6SM SCT008 OVC015
     FM040100 06006KT P6SM OVC005=



000
FTUS41 KPHI 031132
TAFACY
TAF
KACY 031132Z 0312/0412 09008KT 2SM -RA BR OVC003
      TEMPO 0312/0315 5SM -RA BR OVC006
     FM031500 06008KT 6SM BR VCSH OVC005
     FM032100 06005KT P6SM OVC010
     FM040100 04005KT 5SM BR OVC005=



000
FTUS41 KPHI 031132
TAFPHL
TAF
KPHL 031132Z 0312/0418 08008KT 6SM -RA BR OVC006
      TEMPO 0312/0314 4SM -RA BR
     FM031500 05010KT P6SM OVC008
     FM032000 08008KT P6SM SCT008 OVC015
     FM040100 06005KT P6SM OVC005
     FM041300 07005KT 6SM BR VCSH OVC007=



000
FTUS41 KPHI 031132
TAFABE
TAF
KABE 031132Z 0312/0412 05005KT P6SM -RA OVC008
      TEMPO 0312/0314 4SM -RA BR OVC012
     FM031500 05007KT 6SM BR OVC007
     FM032000 04005KT P6SM OVC010
     FM040100 08005KT 6SM BR OVC005=



000
FTUS41 KPHI 031132
TAFTTN
TAF
KTTN 031132Z 0312/0412 07005KT 6SM -RA BR BKN005 OVC015
      TEMPO 0312/0314 4SM -RA BR SCT005 OVC015
     FM031500 04007KT 6SM BR OVC007
     FM032000 07007KT P6SM OVC010
     FM040100 07005KT 5SM BR OVC005=



000
FTUS41 KPHI 031132
TAFPNE
TAF
KPNE 031132Z 0312/0412 07005KT 5SM -RA BR BKN005 OVC015
      TEMPO 0312/0314 2SM -RA BR OVC005
     FM031500 04007KT 6SM BR OVC007
     FM032000 07007KT P6SM SCT008 OVC015
     FM040100 07005KT P6SM OVC005=



000
FTUS41 KPHI 031132
TAFRDG
TAF
KRDG 031132Z 0312/0412 03007KT 6SM -RA BR OVC008
      TEMPO 0312/0314 4SM -RA BR OVC005
     FM031500 03005KT P6SM OVC007
     FM032000 09005KT P6SM OVC010
     FM040100 VRB03KT 6SM BR OVC005=



000
FTUS41 KPHI 031012 AAB
TAFPHL
TAF AMD
KPHL 031012Z 0310/0412 08008KT 6SM -RA BR OVC015
      TEMPO 0310/0312 4SM -RA BR OVC008
     FM031300 03010KT 6SM BR VCSH OVC007
     FM032000 06008KT P6SM SCT008 OVC015
     FM040100 08006KT P6SM OVC007=



000
FTUS41 KPHI 031012 AAB
TAFPHL
TAF AMD
KPHL 031012Z 0310/0412 08008KT 6SM -RA BR OVC015
      TEMPO 0310/0312 4SM -RA BR OVC008
     FM031300 03010KT 6SM BR VCSH OVC007
     FM032000 06008KT P6SM SCT008 OVC015
     FM040100 08006KT P6SM OVC007=



000
FTUS41 KPHI 030813 AAA
TAFRDG
TAF AMD
KRDG 030813Z 0308/0406 06005KT 6SM -RA BR OVC015
      TEMPO 0308/0312 3SM -RA BR OVC007
     FM031300 03005KT 6SM BR VCSH OVC007
     FM032000 09005KT P6SM OVC010
     FM040100 10003KT 6SM BR OVC005=



000
FTUS41 KPHI 030812 AAA
TAFABE
TAF AMD
KABE 030812Z 0308/0406 05005KT 6SM -RA BR OVC015
      TEMPO 0308/0312 4SM -RA BR OVC008
     FM031300 05007KT 6SM BR VCSH OVC007
     FM032000 04007KT P6SM OVC010
     FM040100 08005KT 6SM BR OVC005=



000
FTUS41 KPHI 030811 AAA
TAFTTN
TAF AMD
KTTN 030811Z 0308/0406 07005KT 6SM -RA BR OVC006
      TEMPO 0308/0312 3SM -RA BR OVC004
     FM031300 03009KT 6SM BR VCSH OVC007
     FM032000 06007KT P6SM OVC010
     FM040100 08005KT 6SM BR OVC005=



000
FTUS41 KPHI 030809 AAA
TAFPNE
TAF AMD
KPNE 030809Z 0308/0406 06005KT 6SM -RA BR OVC007
      TEMPO 0308/0312 2SM -RA BR OVC005
     FM031300 03009KT 6SM BR VCSH OVC007
     FM032000 06007KT P6SM SCT008 OVC015
     FM040100 08005KT P6SM OVC007=



000
FTUS41 KPHI 030809 AAA
TAFPNE
TAF AMD
KPNE 030809Z 0308/0406 06005KT 6SM -RA BR OVC007
      TEMPO 0308/0312 2SM -RA BR OVC005
     FM031300 03009KT 6SM BR VCSH OVC007
     FM032000 06007KT P6SM SCT008 OVC015
     FM040100 08005KT P6SM OVC007=



000
FTUS41 KPHI 030809 AAA
TAFILG
TAF AMD
KILG 030809Z 0308/0406 06008KT 6SM -RA BR OVC007
      TEMPO 0308/0312 4SM -RA BR OVC005
     FM031300 03008KT 6SM BR VCSH OVC007
     FM032000 04008KT P6SM SCT008 OVC015
     FM040100 09006KT P6SM OVC007=



000
FTUS41 KPHI 030809 AAA
TAFPHL
TAF AMD
KPHL 030809Z 0308/0412 08008KT 6SM -RA BR OVC010
      TEMPO 0308/0312 3SM -RA BR OVC007
     FM031300 03010KT 6SM BR VCSH OVC007
     FM032000 06008KT P6SM SCT008 OVC015
     FM040100 08006KT P6SM OVC007=



000
FTUS41 KPHI 030809 AAA
TAFMIV
TAF AMD
KMIV 030809Z 0308/0406 10008KT 6SM -RA BR OVC006
      TEMPO 0308/0312 4SM -RA BR OVC004
     FM031400 04008KT 6SM BR VCSH OVC007
     FM032100 01006KT P6SM SCT008 OVC015
     FM040100 VRB02KT 6SM BR OVC007=



000
FTUS41 KPHI 030809 AAB
TAFACY
TAF AMD
KACY 030809Z 0308/0406 09010KT 6SM -RA BR OVC008
      TEMPO 0308/0312 4SM -RA BR OVC005
     FM031400 05008KT 6SM BR VCSH OVC007
     FM032100 02008KT P6SM OVC010
     FM040100 05005KT 5SM BR OVC005=



000
FTUS41 KPHI 030601 AAA
TAFACY
TAF AMD
KACY 030601Z 0306/0406 09012KT 6SM BR SCT008 OVC035
      TEMPO 0307/0310 3SM -SHRA BR OVC015
     FM031000 08005KT 4SM -SHRA BR OVC005
     FM031400 05008KT 6SM BR VCSH OVC007
     FM032100 02008KT P6SM OVC010
     FM040100 05005KT 5SM BR OVC005=



000
FTUS41 KPHI 030527
TAFPNE
TAF
KPNE 030527Z 0306/0406 09005KT 6SM -SHRA BR SCT010 OVC030
      TEMPO 0306/0309 2SM SHRA BR OVC010
     FM030900 06007KT 3SM -SHRA BR OVC005
     FM031200 03009KT 6SM BR VCSH OVC007
     FM032000 06007KT P6SM SCT008 OVC015
     FM040100 08005KT P6SM OVC007=



000
FTUS41 KPHI 030527
TAFPHL
TAF
KPHL 030527Z 0306/0412 09008KT 6SM -SHRA BR SCT010 OVC035
      TEMPO 0306/0309 2SM SHRA BR OVC010
     FM030900 06008KT 3SM -SHRA BR OVC005
     FM031200 03010KT 6SM BR VCSH OVC007
     FM032000 06008KT P6SM SCT008 OVC015
     FM040100 08006KT P6SM OVC007=



000
FTUS41 KPHI 030527
TAFTTN
TAF
KTTN 030527Z 0306/0406 09005KT 6SM -SHRA BR BKN008 OVC025
      TEMPO 0306/0309 2SM SHRA BR OVC004
     FM030900 05007KT 3SM -SHRA BR OVC005
     FM031200 05009KT 6SM BR VCSH OVC007
     FM032000 04007KT P6SM OVC010
     FM040100 08005KT 6SM BR OVC005=



000
FTUS41 KPHI 030527
TAFACY
TAF
KACY 030527Z 0306/0406 09005KT 6SM -SHRA BR SCT005 OVC025
      TEMPO 0306/0310 2SM SHRA BR OVC005
     FM031000 08005KT 3SM -SHRA BR OVC005
     FM031400 05008KT 6SM BR VCSH OVC007
     FM032100 02008KT P6SM OVC010
     FM040100 05005KT 5SM BR OVC005=



000
FTUS41 KPHI 030527
TAFILG
TAF
KILG 030527Z 0306/0406 09008KT 6SM BR BKN006 OVC025
      TEMPO 0306/0309 3SM -SHRA BR OVC005
     FM030900 04008KT 4SM -SHRA BR OVC005
     FM031200 03008KT 6SM BR VCSH OVC007
     FM032000 04008KT P6SM SCT008 OVC015
     FM040100 09006KT P6SM OVC007=



000
FTUS41 KPHI 030527
TAFMIV
TAF
KMIV 030527Z 0306/0406 06006KT 6SM -SHRA BR BKN005 OVC015
      TEMPO 0306/0310 2SM SHRA BR OVC004
     FM031000 08006KT 3SM -SHRA BR OVC005
     FM031400 04008KT 6SM BR VCSH OVC007
     FM032100 01006KT P6SM SCT008 OVC015
     FM040100 VRB02KT 6SM BR OVC007=



000
FTUS41 KPHI 030527
TAFABE
TAF
KABE 030527Z 0306/0406 05005KT 6SM -SHRA BR SCT005 OVC030
      TEMPO 0306/0309 2SM SHRA BR OVC015
     FM030900 05005KT 3SM -SHRA BR OVC005
     FM031300 05007KT 6SM BR VCSH OVC007
     FM032000 04007KT P6SM OVC010
     FM040100 08005KT 6SM BR OVC005=



000
FTUS41 KPHI 030527
TAFRDG
TAF
KRDG 030527Z 0306/0406 08005KT 6SM -SHRA BR BKN009 OVC030
      TEMPO 0306/0309 2SM SHRA BR OVC009
     FM030900 04005KT 3SM -SHRA BR OVC005
     FM031300 03005KT 6SM BR VCSH OVC007
     FM032000 09005KT P6SM OVC010
     FM040100 10003KT 6SM BR OVC005=



000
FTUS41 KPHI 030458 AAA
TAFPHL
TAF AMD
KPHL 030458Z 0305/0406 09008KT 6SM -SHRA BR SCT008 OVC030
      TEMPO 0305/0309 2SM SHRA BR OVC015
     FM030900 03006KT 2SM SHRA BR OVC005
     FM031200 03010KT 6SM -DZ BR VCSH OVC007
     FM032000 05009KT P6SM OVC012
     FM040200 08006KT P6SM OVC025=



000
FTUS41 KPHI 030354 AAA
TAFABE
TAF AMD
KABE 030354Z 0304/0324 VRB03KT 6SM -SHRA BR BKN035
      TEMPO 0304/0306 2SM SHRA BR OVC030
     FM030600 05005KT 4SM -SHRA BR OVC015
     FM030700 02004KT 3SM -SHRA BR OVC001
     FM031100 04006KT 6SM -DZ BR OVC007
     FM031600 05008KT P6SM OVC012
     FM032100 07005KT P6SM OVC025=



000
FTUS41 KPHI 030306 AAA
TAFILG
TAF AMD
KILG 030306Z 0303/0324 06005KT 6SM -SHRA BR SCT030 BKN050
      TEMPO 0303/0305 2SM TSRA BR BKN025 OVC050CB
     FM030500 10006KT 2SM SHRA BR OVC005
     FM031200 03009KT 6SM -DZ BR VCSH OVC006
     FM032000 05008KT P6SM OVC010=



000
FTUS41 KPHI 030305 AAA
TAFMIV
TAF AMD
KMIV 030305Z 0303/0324 07004KT P6SM -SHRA OVC010
      TEMPO 0303/0305 2SM TSRA BR BKN007 OVC025CB
     FM030500 06007KT 2SM SHRA BR OVC003
     FM031300 03008KT 5SM -SHRA BR OVC006
     FM032100 06006KT P6SM OVC010=



000
FTUS41 KPHI 030305 AAA
TAFMIV
TAF AMD
KMIV 030305Z 0303/0324 07004KT P6SM -SHRA OVC010
      TEMPO 0303/0305 2SM TSRA BR BKN007 OVC025CB
     FM030500 06007KT 2SM SHRA BR OVC003
     FM031300 03008KT 5SM -SHRA BR OVC006
     FM032100 06006KT P6SM OVC010=



000
FTUS41 KPHI 030304 AAA
TAFRDG
TAF AMD
KRDG 030304Z 0303/0324 12005KT 6SM -SHRA BR BKN045
      TEMPO 0303/0304 2SM TSRA BR OVC030CB
     FM030400 03006KT 3SM SHRA BR OVC025
     FM030700 36004KT 2SM SHRA BR OVC005
     FM031200 03005KT 6SM -DZ BR OVC008
     FM031600 04006KT P6SM OVC012
     FM032100 06004KT P6SM OVC025=



000
FTUS41 KPHI 030304 AAB
TAFACY
TAF AMD
KACY 030304Z 0303/0324 11007KT P6SM -SHRA OVC015
      TEMPO 0304/0306 1 1/2SM +TSRA BR BKN008 OVC030CB
     FM030600 07008KT 2SM SHRA BR OVC003
     FM031400 03009KT 5SM -SHRA BR OVC006
     FM032200 07006KT P6SM OVC010=



000
FTUS41 KPHI 030304 AAA
TAFRDG
TAF AMD
KRDG 030304Z 0303/0324 12005KT 6SM -SHRA BR BKN045
      TEMPO 0303/0304 2SM TSRA BR OVC030CB
     FM030400 03006KT 3SM SHRA BR OVC025
     FM030700 36004KT 2SM SHRA BR OVC005
     FM031200 03005KT 6SM -DZ BR OVC008
     FM031600 04006KT P6SM OVC012
     FM032100 06004KT P6SM OVC025=



000
FTUS41 KPHI 030150 AAA
TAFACY
TAF AMD
KACY 030150Z 0302/0324 11007KT P6SM OVC004
     FM030315 09006KT 4SM -SHRA SCT004 BKN015 OVC035
      TEMPO 0304/0306 1 1/2SM +TSRA BR BKN008 OVC030CB
     FM030600 07008KT 2SM SHRA BR OVC003
     FM031400 03009KT 5SM -SHRA BR OVC006
     FM032200 07006KT P6SM OVC010=



000
FTUS41 KPHI 022357
TAFTTN
TAF
KTTN 022357Z 0300/0324 VRB03KT P6SM SCT015 BKN200
     FM030300 06004KT 4SM -SHRA VCTS BKN015 OVC035CB
     FM030500 02005KT 3SM -SHRA BR OVC004
     FM031300 05008KT 6SM BR VCSH OVC008
     FM031800 06007KT P6SM OVC012=



000
FTUS41 KPHI 022357
TAFILG
TAF
KILG 022357Z 0300/0324 06005KT P6SM BKN150
     FM030200 08004KT 4SM -SHRA BKN015 OVC035
      TEMPO 0302/0305 1 1/2SM +TSRA BR BKN010 OVC035CB
     FM030500 10006KT 2SM SHRA BR OVC004
     FM031200 03009KT 6SM -DZ BR VCSH OVC006
     FM032000 05008KT P6SM OVC010=



000
FTUS41 KPHI 022357
TAFPNE
TAF
KPNE 022357Z 0300/0324 VRB03KT 6SM HZ BKN019 BKN200
     FM030230 07004KT 4SM -SHRA BKN015 OVC035
      TEMPO 0303/0305 2SM TSRA BR BKN010 OVC035CB
     FM030500 03006KT 2SM SHRA BR OVC004
     FM031200 04009KT 5SM -DZ BR VCSH OVC007
     FM032000 05008KT P6SM OVC010=



000
FTUS41 KPHI 022357
TAFACY
TAF
KACY 022357Z 0300/0324 11007KT P6SM BKN150
     FM030300 09006KT 4SM -SHRA BKN015 OVC035
      TEMPO 0304/0306 1 1/2SM +TSRA BR BKN008 OVC030CB
     FM030600 07008KT 2SM SHRA BR OVC003
     FM031400 03009KT 5SM -SHRA BR OVC006
     FM032200 07006KT P6SM OVC010=



000
FTUS41 KPHI 022357
TAFRDG
TAF
KRDG 022357Z 0300/0324 VRB03KT P6SM BKN035 OVC100
     FM030300 06004KT 5SM -SHRA OVC025
     FM030500 03006KT 3SM SHRA BR OVC010
     FM030700 36004KT 2SM SHRA BR OVC005
     FM031200 03005KT 6SM -DZ BR OVC008
     FM031600 04006KT P6SM OVC012
     FM032100 06004KT P6SM OVC025=



000
FTUS41 KPHI 022357
TAFMIV
TAF
KMIV 022357Z 0300/0324 07004KT P6SM BKN150
     FM030230 08004KT 4SM -SHRA BKN015 OVC035
      TEMPO 0303/0305 1 1/2SM +TSRA BR BKN009 OVC035CB
     FM030500 06007KT 2SM SHRA BR OVC003
     FM031300 03008KT 5SM -SHRA BR OVC006
     FM032100 06006KT P6SM OVC010=



000
FTUS41 KPHI 022357
TAFPHL
TAF
KPHL 022357Z 0300/0406 VRB03KT P6SM FEW015 BKN200
     FM030230 07004KT 4SM -SHRA BKN015 OVC035
      TEMPO 0303/0305 1 1/2SM +TSRA BR BKN010 OVC035CB
     FM030500 03006KT 2SM SHRA BR OVC005
     FM031200 03010KT 6SM -DZ BR VCSH OVC007
     FM032000 05009KT P6SM OVC012
     FM040200 08006KT P6SM OVC025=



000
FTUS41 KPHI 022357
TAFABE
TAF
KABE 022357Z 0300/0324 VRB03KT P6SM SCT070 OVC100
     FM030400 07004KT 6SM -SHRA OVC025
     FM030600 05005KT 4SM -SHRA BR OVC015
     FM030700 02004KT 3SM -SHRA BR OVC001
     FM031100 04006KT 6SM -DZ BR OVC007
     FM031600 05008KT P6SM OVC012
     FM032100 07005KT P6SM OVC025=



000
FTUS41 KPHI 022357
TAFPNE
TAF
KPNE 022357Z 0300/0324 VRB03KT 6SM HZ BKN019 BKN200
     FM030230 07004KT 4SM -SHRA BKN015 OVC035
      TEMPO 0303/0305 2SM TSRA BR BKN010 OVC035CB
     FM030500 03006KT 2SM SHRA BR OVC004
     FM031200 04009KT 5SM -DZ BR VCSH OVC007
     FM032000 05008KT P6SM OVC010=



000
FTUS41 KPHI 022357
TAFACY
TAF
KACY 022357Z 0300/0324 11007KT P6SM BKN150
     FM030300 09006KT 4SM -SHRA BKN015 OVC035
      TEMPO 0304/0306 1 1/2SM +TSRA BR BKN008 OVC030CB
     FM030600 07008KT 2SM SHRA BR OVC003
     FM031400 03009KT 5SM -SHRA BR OVC006
     FM032200 07006KT P6SM OVC010=



000
FTUS41 KPHI 022357
TAFMIV
TAF
KMIV 022357Z 0300/0324 07004KT P6SM BKN150
     FM030230 08004KT 4SM -SHRA BKN015 OVC035
      TEMPO 0303/0305 1 1/2SM +TSRA BR BKN009 OVC035CB
     FM030500 06007KT 2SM SHRA BR OVC003
     FM031300 03008KT 5SM -SHRA BR OVC006
     FM032100 06006KT P6SM OVC010=



000
FTUS41 KPHI 022357
TAFTTN
TAF
KTTN 022357Z 0300/0324 VRB03KT P6SM SCT015 BKN200
     FM030300 06004KT 4SM -SHRA VCTS BKN015 OVC035CB
     FM030500 02005KT 3SM -SHRA BR OVC004
     FM031300 05008KT 6SM BR VCSH OVC008
     FM031800 06007KT P6SM OVC012=



000
FTUS41 KPHI 022357
TAFILG
TAF
KILG 022357Z 0300/0324 06005KT P6SM BKN150
     FM030200 08004KT 4SM -SHRA BKN015 OVC035
      TEMPO 0302/0305 1 1/2SM +TSRA BR BKN010 OVC035CB
     FM030500 10006KT 2SM SHRA BR OVC004
     FM031200 03009KT 6SM -DZ BR VCSH OVC006
     FM032000 05008KT P6SM OVC010=



000
FTUS41 KPHI 022357
TAFPHL
TAF
KPHL 022357Z 0300/0406 VRB03KT P6SM FEW015 BKN200
     FM030230 07004KT 4SM -SHRA BKN015 OVC035
      TEMPO 0303/0305 1 1/2SM +TSRA BR BKN010 OVC035CB
     FM030500 03006KT 2SM SHRA BR OVC005
     FM031200 03010KT 6SM -DZ BR VCSH OVC007
     FM032000 05009KT P6SM OVC012
     FM040200 08006KT P6SM OVC025=



000
FTUS41 KPHI 022357
TAFABE
TAF
KABE 022357Z 0300/0324 VRB03KT P6SM SCT070 OVC100
     FM030400 07004KT 6SM -SHRA OVC025
     FM030600 05005KT 4SM -SHRA BR OVC015
     FM030700 02004KT 3SM -SHRA BR OVC001
     FM031100 04006KT 6SM -DZ BR OVC007
     FM031600 05008KT P6SM OVC012
     FM032100 07005KT P6SM OVC025=



000
FTUS41 KPHI 022357
TAFRDG
TAF
KRDG 022357Z 0300/0324 VRB03KT P6SM BKN035 OVC100
     FM030300 06004KT 5SM -SHRA OVC025
     FM030500 03006KT 3SM SHRA BR OVC010
     FM030700 36004KT 2SM SHRA BR OVC005
     FM031200 03005KT 6SM -DZ BR OVC008
     FM031600 04006KT P6SM OVC012
     FM032100 06004KT P6SM OVC025=



000
FTUS41 KPHI 022130 AAD
TAFPHL
TAF AMD
KPHL 022130Z 0221/0324 19005KT P6SM BKN015
     FM022245 VRB04KT P6SM SCT015 SCT250
     FM030200 08006KT 5SM SHRA BR SCT015 BKN035
      TEMPO 0303/0305 2SM TSRA BR BKN010 OVC035CB
     FM030500 06007KT 3SM -SHRA BR OVC006
     FM031200 04009KT 4SM -DZ BR OVC005
     FM031500 02008KT 6SM BR OVC008
     FM031800 03007KT P6SM OVC012=



000
FTUS41 KPHI 021951 AAA
TAFILG
TAF AMD
KILG 021951Z 0220/0318 17005KT P6SM OVC010
     FM022100 17006KT P6SM BKN015
     FM030100 14005KT 5SM -SHRA BR OVC009
     FM030400 08005KT 3SM SHRA BR OVC004
     FM031200 04009KT 4SM -DZ BR OVC005
     FM031500 02008KT 6SM BR OVC008=



000
FTUS41 KPHI 021941 AAA
TAFTTN
TAF AMD
KTTN 021941Z 0220/0318 21004KT 6SM BR OVC010
     FM022100 17006KT P6SM BKN015
     FM030100 14005KT 5SM -SHRA BR OVC009
     FM030400 08005KT 3SM SHRA BR OVC004
     FM031200 04009KT 4SM -DZ BR OVC005
     FM031500 02008KT 6SM BR OVC008=



000
FTUS41 KPHI 021941 AAC
TAFPHL
TAF AMD
KPHL 021941Z 0220/0324 VRB04KT P6SM BKN010
     FM022100 17005KT P6SM BKN012
     FM030100 14005KT 5SM -SHRA BR OVC009
     FM030400 08005KT 3SM SHRA BR OVC004
     FM031200 04009KT 4SM -DZ BR OVC005
     FM031500 02008KT 6SM BR OVC008
     FM031800 03007KT P6SM OVC012=



000
FTUS41 KPHI 021919 AAA
TAFPNE
TAF AMD
KPNE 021919Z 0219/0318 VRB03KT 6SM HZ OVC010
     FM022100 17006KT P6SM BKN015
     FM030100 14005KT 5SM -SHRA BR OVC009
     FM030400 08005KT 3SM SHRA BR OVC004
     FM031200 04009KT 4SM -DZ BR OVC005
     FM031500 02008KT 6SM BR OVC008=



000
FTUS41 KPHI 021919 AAA
TAFPNE
TAF AMD
KPNE 021919Z 0219/0318 VRB03KT 6SM HZ OVC010
     FM022100 17006KT P6SM BKN015
     FM030100 14005KT 5SM -SHRA BR OVC009
     FM030400 08005KT 3SM SHRA BR OVC004
     FM031200 04009KT 4SM -DZ BR OVC005
     FM031500 02008KT 6SM BR OVC008=



000
FTUS41 KPHI 021918 AAA
TAFABE
TAF AMD
KABE 021918Z 0219/0318 VRB03KT 6SM BR OVC010
     FM022200 VRB04KT P6SM OVC015
     FM030200 03005KT 4SM -SHRA BR OVC007
     FM030600 02007KT 4SM SHRA OVC003
     FM031200 02005KT 6SM -DZ BR OVC004
     FM031600 01005KT P6SM OVC012=



000
FTUS41 KPHI 021917 AAB
TAFPHL
TAF AMD
KPHL 021917Z 0219/0324 VRB04KT P6SM BKN007
     FM022000 VRB04KT P6SM BKN009
     FM022100 17005KT P6SM BKN012
     FM030100 14005KT 5SM -SHRA BR OVC009
     FM030400 08005KT 3SM SHRA BR OVC004
     FM031200 04009KT 4SM -DZ BR OVC005
     FM031500 02008KT 6SM BR OVC008
     FM031800 03007KT P6SM OVC012=



000
FTUS41 KPHI 021900 AAA
TAFRDG
TAF AMD
KRDG 021900Z 0219/0318 VRB03KT P6SM OVC010
     FM022200 VRB04KT P6SM OVC015
     FM030200 03005KT 4SM -SHRA BR OVC007
     FM030600 02007KT 4SM SHRA OVC003
     FM031200 02005KT 6SM -DZ BR OVC004
     FM031600 01005KT P6SM OVC012=



000
FTUS41 KPHI 021900 AAA
TAFRDG
TAF AMD
KRDG 021900Z 0219/0318 VRB03KT P6SM OVC010
     FM022200 VRB04KT P6SM OVC015
     FM030200 03005KT 4SM -SHRA BR OVC007
     FM030600 02007KT 4SM SHRA OVC003
     FM031200 02005KT 6SM -DZ BR OVC004
     FM031600 01005KT P6SM OVC012=



000
FTUS41 KPHI 021859 AAA
TAFACY
TAF AMD
KACY 021859Z 0219/0318 VRB03KT P6SM OVC010
     FM030000 17005KT 4SM -SHRA BR OVC005
     FM030400 12004KT 2SM SHRA BR OVC002
     FM031000 11009KT 1/2SM -SHRA FG OVC001
     FM031400 32009KT 2SM -DZ BR OVC004=



000
FTUS41 KPHI 021858 AAA
TAFMIV
TAF AMD
KMIV 021858Z 0219/0318 30005KT P6SM OVC010
     FM030000 17005KT 4SM BR OVC004
     FM030400 12004KT 2SM SHRA BR OVC002
     FM031000 11009KT 1/2SM -SHRA FG OVC001
     FM031400 32009KT 2SM -DZ BR OVC004=



000
FTUS41 KPHI 021800 AAA
TAFPHL
TAF AMD
KPHL 021800Z 0218/0324 17004KT 5SM BR OVC005
     FM021900 13005KT P6SM OVC006
     FM022100 17006KT P6SM BKN012
     FM030100 14005KT 5SM -SHRA BR OVC009
     FM030400 08005KT 3SM SHRA BR OVC004
     FM031200 04009KT 4SM -DZ BR OVC005
     FM031500 02008KT 6SM BR OVC008
     FM031800 03007KT P6SM OVC012=



000
FTUS41 KPHI 021800 AAA
TAFPHL
TAF AMD
KPHL 021800Z 0218/0324 17004KT 5SM BR OVC005
     FM021900 13005KT P6SM OVC006
     FM022100 17006KT P6SM BKN012
     FM030100 14005KT 5SM -SHRA BR OVC009
     FM030400 08005KT 3SM SHRA BR OVC004
     FM031200 04009KT 4SM -DZ BR OVC005
     FM031500 02008KT 6SM BR OVC008
     FM031800 03007KT P6SM OVC012=



000
FTUS41 KPHI 021733
TAFABE
TAF
KABE 021733Z 0218/0318 15005KT 5SM BR OVC006
     FM022000 22004KT P6SM OVC008
     FM022200 VRB04KT P6SM OVC015
     FM030200 03005KT 4SM -SHRA BR OVC007
     FM030600 02007KT 4SM SHRA OVC003
     FM031200 02005KT 6SM -DZ BR OVC004
     FM031600 01005KT P6SM OVC012=



000
FTUS41 KPHI 021733
TAFMIV
TAF
KMIV 021733Z 0218/0318 15005KT 6SM BR OVC006
     FM022000 16006KT P6SM OVC006
     FM030000 17005KT 4SM BR OVC004
     FM030400 12004KT 2SM SHRA BR OVC002
     FM031000 11009KT 1/2SM -SHRA FG OVC001
     FM031400 32009KT 2SM -DZ BR OVC004=



000
FTUS41 KPHI 021733
TAFACY
TAF
KACY 021733Z 0218/0318 15006KT P6SM OVC005
     FM022000 16006KT P6SM OVC006
     FM030000 17005KT 4SM -SHRA BR OVC004
     FM030400 12004KT 2SM SHRA BR OVC002
     FM031000 11009KT 1/2SM -SHRA FG OVC001
     FM031400 32009KT 2SM -DZ BR OVC004=



000
FTUS41 KPHI 021733
TAFPHL
TAF
KPHL 021733Z 0218/0324 17004KT 5SM BR OVC005
     FM021900 13005KT P6SM OVC007
     FM022100 17006KT P6SM BKN015
     FM030100 14005KT 5SM -SHRA BR OVC009
     FM030400 08005KT 3SM SHRA BR OVC004
     FM031200 04009KT 4SM -DZ BR OVC005
     FM031500 02008KT 6SM BR OVC008
     FM031800 03007KT P6SM OVC012=



000
FTUS41 KPHI 021733
TAFPNE
TAF
KPNE 021733Z 0218/0318 17004KT 6SM HZ OVC007
     FM021900 18005KT P6SM OVC009
     FM022100 17006KT P6SM BKN015
     FM030100 14005KT 5SM -SHRA BR OVC009
     FM030400 08005KT 3SM SHRA BR OVC004
     FM031200 04009KT 4SM -DZ BR OVC005
     FM031500 02008KT 6SM BR OVC008=



000
FTUS41 KPHI 021733
TAFILG
TAF
KILG 021733Z 0218/0318 17005KT 6SM BR OVC004
     FM021900 13005KT P6SM OVC007
     FM022100 17006KT P6SM BKN015
     FM030100 14005KT 5SM -SHRA BR OVC009
     FM030400 08005KT 3SM SHRA BR OVC004
     FM031200 04009KT 4SM -DZ BR OVC005
     FM031500 02008KT 6SM BR OVC008=



000
FTUS41 KPHI 021733
TAFRDG
TAF
KRDG 021733Z 0218/0318 15007KT P6SM OVC007
     FM022000 22004KT P6SM OVC008
     FM022200 VRB04KT P6SM OVC015
     FM030200 03005KT 4SM -SHRA BR OVC007
     FM030600 02007KT 4SM SHRA OVC003
     FM031200 02005KT 6SM -DZ BR OVC004
     FM031600 01005KT P6SM OVC012=



000
FTUS41 KPHI 021733
TAFTTN
TAF
KTTN 021733Z 0218/0318 17004KT 6SM BR OVC005
     FM021900 13005KT P6SM OVC007
     FM022100 17006KT P6SM BKN015
     FM030100 14005KT 5SM -SHRA BR OVC009
     FM030400 08005KT 3SM SHRA BR OVC004
     FM031200 04009KT 4SM -DZ BR OVC005
     FM031500 02008KT 6SM BR OVC008=



000
FTUS41 KPHI 021525 AAA
TAFACY
TAF AMD
KACY 021525Z 0215/0312 13007KT 4SM BR OVC004
     FM021800 15007KT 6SM BR OVC007
     FM022000 19007KT P6SM OVC015
     FM030000 14005KT 5SM -SHRA BR OVC007
     FM030300 09005KT 3SM SHRA BR OVC004=



000
FTUS41 KPHI 021523 AAA
TAFMIV
TAF AMD
KMIV 021523Z 0215/0312 13005KT 4SM BR OVC004
     FM021700 15006KT 6SM BR OVC007
     FM021900 18007KT P6SM OVC015
     FM030000 13005KT 5SM -SHRA BR OVC007
     FM030300 08005KT 3SM SHRA BR OVC004=



000
FTUS41 KPHI 021523 AAA
TAFMIV
TAF AMD
KMIV 021523Z 0215/0312 13005KT 4SM BR OVC004
     FM021700 15006KT 6SM BR OVC007
     FM021900 18007KT P6SM OVC015
     FM030000 13005KT 5SM -SHRA BR OVC007
     FM030300 08005KT 3SM SHRA BR OVC004=



000
FTUS41 KPHI 021521 AAA
TAFILG
TAF AMD
KILG 021521Z 0215/0312 16005KT 5SM BR OVC004
     FM021700 16007KT 6SM BR OVC007
     FM021900 17007KT P6SM OVC015
     FM030000 13005KT 5SM -SHRA BR OVC007
     FM030300 07005KT 3SM SHRA BR OVC004=



000
FTUS41 KPHI 021520 AAA
TAFPNE
TAF AMD
KPNE 021520Z 0215/0312 12006KT P6SM OVC005
     FM021700 13006KT P6SM OVC007
     FM021900 16007KT P6SM OVC015
     FM030000 10005KT 5SM -SHRA BR OVC007
     FM030300 05005KT 3SM SHRA BR OVC004=



000
FTUS41 KPHI 021516 AAA
TAFTTN
TAF AMD
KTTN 021516Z 0215/0312 14006KT 4SM BR OVC004
     FM021700 15007KT 6SM BR OVC007
     FM021900 16007KT P6SM OVC010
     FM030000 09005KT 5SM -SHRA BR OVC007
     FM030300 06005KT 3SM SHRA BR OVC004=



000
FTUS41 KPHI 021516 AAA
TAFTTN
TAF AMD
KTTN 021516Z 0215/0312 14006KT 4SM BR OVC004
     FM021700 15007KT 6SM BR OVC007
     FM021900 16007KT P6SM OVC010
     FM030000 09005KT 5SM -SHRA BR OVC007
     FM030300 06005KT 3SM SHRA BR OVC004=



000
FTUS41 KPHI 021514 AAA
TAFABE
TAF AMD
KABE 021514Z 0215/0312 13005KT 5SM BR OVC006
     FM021700 13007KT 6SM BR OVC008
     FM022000 09005KT P6SM OVC010
     FM030000 05005KT 5SM -SHRA BR OVC007
     FM030300 04005KT 3SM SHRA BR OVC004=



000
FTUS41 KPHI 021510 AAA
TAFRDG
TAF AMD
KRDG 021510Z 0215/0312 13005KT P6SM OVC005
     FM021800 15007KT P6SM OVC007
     FM022000 19005KT P6SM VCSH OVC010
     FM030000 09005KT 5SM -SHRA BR OVC007
     FM030300 04005KT 3SM SHRA BR OVC004=



000
FTUS41 KPHI 021509 AAA
TAFPHL
TAF AMD
KPHL 021509Z 0215/0318 11005KT P6SM OVC005
     FM021700 13006KT P6SM OVC008
     FM021900 17007KT P6SM OVC015
     FM030000 14005KT 5SM -SHRA BR OVC007
     FM030300 08005KT 3SM SHRA BR OVC004=



000
FTUS41 KPHI 021509 AAA
TAFPHL
TAF AMD
KPHL 021509Z 0215/0318 11005KT P6SM OVC005
     FM021700 13006KT P6SM OVC008
     FM021900 17007KT P6SM OVC015
     FM030000 14005KT 5SM -SHRA BR OVC007
     FM030300 08005KT 3SM SHRA BR OVC004=



000
FTUS41 KPHI 021127
TAFRDG
TAF
KRDG 021127Z 0212/0312 12003KT P6SM OVC006
      TEMPO 0212/0214 3SM SHRA BR OVC004
     FM021400 12005KT 5SM -SHRA BR OVC005
     FM021600 15007KT P6SM OVC007
     FM022000 19005KT P6SM VCSH OVC010
     FM030000 09005KT 5SM -SHRA BR OVC007
     FM030300 04005KT 3SM SHRA BR OVC004=



000
FTUS41 KPHI 021127
TAFACY
TAF
KACY 021127Z 0212/0312 06007KT 3SM BR OVC004
      TEMPO 0212/0214 1SM -SHRA BR OVC002
     FM021500 13005KT 6SM BR OVC006
     FM021900 19007KT P6SM OVC015
     FM030000 14005KT 5SM -SHRA BR OVC007
     FM030300 09005KT 3SM SHRA BR OVC004=



000
FTUS41 KPHI 021127
TAFPNE
TAF
KPNE 021127Z 0212/0312 09007KT 5SM BR OVC004
      TEMPO 0212/0214 3SM -SHRA BR
     FM021400 10005KT 5SM -SHRA BR OVC004
     FM021600 13007KT P6SM OVC007
     FM021900 16007KT P6SM OVC015
     FM030000 10005KT 5SM -SHRA BR OVC007
     FM030300 05005KT 3SM SHRA BR OVC004=



000
FTUS41 KPHI 021127
TAFPHL
TAF
KPHL 021127Z 0212/0318 10005KT 6SM BR OVC003
      TEMPO 0212/0214 3SM -SHRA BR OVC005
     FM021400 14005KT P6SM OVC007
     FM021900 17007KT P6SM OVC015
     FM030000 14005KT 5SM -SHRA BR OVC007
     FM030300 08005KT 3SM SHRA BR OVC004=



000
FTUS41 KPHI 021127
TAFILG
TAF
KILG 021127Z 0212/0312 10005KT 6SM BR OVC005
      TEMPO 0212/0214 3SM -SHRA BR OVC003
     FM021400 14005KT 6SM BR OVC007
     FM021900 17007KT P6SM OVC015
     FM030000 13005KT 5SM -SHRA BR OVC007
     FM030300 07005KT 3SM SHRA BR OVC004=



000
FTUS41 KPHI 021127
TAFABE
TAF
KABE 021127Z 0212/0312 11005KT 3SM BR OVC004
      TEMPO 0212/0214 1SM -SHRA BR
     FM021400 10005KT 3SM -SHRA BR OVC004
     FM021700 13007KT 6SM BR OVC007
     FM022000 09005KT P6SM OVC010
     FM030000 05005KT 5SM -SHRA BR OVC007
     FM030300 04005KT 3SM SHRA BR OVC004=



000
FTUS41 KPHI 021127
TAFMIV
TAF
KMIV 021127Z 0212/0312 09005KT 5SM BR OVC004
      TEMPO 0212/0214 2SM -SHRA BR OVC002
     FM021400 13005KT 6SM BR OVC006
     FM021900 18007KT P6SM OVC015
     FM030000 13005KT 5SM -SHRA BR OVC007
     FM030300 08005KT 3SM SHRA BR OVC004=



000
FTUS41 KPHI 021127
TAFTTN
TAF
KTTN 021127Z 0212/0312 11005KT 2SM BR OVC004
      TEMPO 0212/0214 1SM -SHRA BR
     FM021400 10005KT 4SM -SHRA BR OVC004
     FM021700 13007KT 6SM BR OVC007
     FM021900 16007KT P6SM OVC010
     FM030000 09005KT 5SM -SHRA BR OVC007
     FM030300 06005KT 3SM SHRA BR OVC004=



000
FTUS41 KPHI 020808 AAA
TAFRDG
TAF AMD
KRDG 020808Z 0208/0306 10003KT P6SM OVC006
      TEMPO 0208/0210 6SM -SHRA BR
     FM021000 09005KT 5SM BR OVC004
     FM021300 12005KT 4SM -SHRA BR OVC004
     FM021500 15007KT 6SM BR OVC007
     FM022000 19005KT P6SM VCSH OVC010
     FM030000 09005KT 5SM -SHRA BR OVC007
     FM030300 04005KT 3SM SHRA BR OVC004=



000
FTUS41 KPHI 020808 AAA
TAFILG
TAF AMD
KILG 020808Z 0208/0306 06005KT 6SM BR OVC004
      TEMPO 0208/0210 3SM -DZ BR
     FM021000 10005KT 4SM -SHRA BR OVC004
     FM021500 14005KT 6SM BR OVC007
     FM021900 17007KT P6SM OVC015
     FM030000 13005KT 5SM -SHRA BR OVC007
     FM030300 07005KT 3SM SHRA BR OVC004=



000
FTUS41 KPHI 020808 AAA
TAFABE
TAF AMD
KABE 020808Z 0208/0306 09005KT 3SM BR OVC004
      TEMPO 0208/0210 2SM -DZ BR
     FM021000 09005KT 2SM -DZ BR OVC004
     FM021300 10005KT 4SM -SHRA BR OVC004
     FM021500 13007KT 6SM BR OVC007
     FM022000 09005KT P6SM OVC010
     FM030000 05005KT 5SM -SHRA BR OVC007
     FM030300 04005KT 3SM SHRA BR OVC004=



000
FTUS41 KPHI 020808 AAA
TAFTTN
TAF AMD
KTTN 020808Z 0208/0306 09005KT 4SM BR OVC004
      TEMPO 0208/0210 2SM -DZ BR
     FM021000 09005KT 2SM -DZ BR OVC004
     FM021300 10005KT 4SM -SHRA BR OVC004
     FM021500 13007KT 6SM BR OVC007
     FM021900 16007KT P6SM OVC010
     FM030000 09005KT 5SM -SHRA BR OVC007
     FM030300 06005KT 3SM SHRA BR OVC004=



000
FTUS41 KPHI 020808 AAA
TAFPNE
TAF AMD
KPNE 020808Z 0208/0306 07007KT 6SM BR OVC004
      TEMPO 0208/0210 4SM -DZ BR
     FM021000 09005KT 2SM -DZ BR OVC004
     FM021200 10005KT 4SM -SHRA BR OVC004
     FM021500 13007KT 6SM BR OVC007
     FM021900 16007KT P6SM OVC015
     FM030000 10005KT 5SM -SHRA BR OVC007
     FM030300 05005KT 3SM SHRA BR OVC004=



000
FTUS41 KPHI 020808 AAA
TAFMIV
TAF AMD
KMIV 020808Z 0208/0306 05005KT 3SM BR OVC004
      TEMPO 0208/0210 1SM -SHRA BR
     FM021000 07005KT 2SM BR OVC004
     FM021200 07005KT 4SM -SHRA BR OVC004
     FM021500 13005KT 6SM BR OVC007
     FM021900 18007KT P6SM OVC015
     FM030000 13005KT 5SM -SHRA BR OVC007
     FM030300 08005KT 3SM SHRA BR OVC004=



000
FTUS41 KPHI 020808 AAA
TAFACY
TAF AMD
KACY 020808Z 0208/0306 05007KT 3SM BR OVC003
      TEMPO 0208/0210 1SM -SHRA BR
     FM021000 07005KT 1SM -DZ BR OVC004
     FM021200 07005KT 3SM -SHRA BR OVC004
     FM021500 13005KT 6SM BR OVC007
     FM021900 19007KT P6SM OVC015
     FM030000 14005KT 5SM -SHRA BR OVC007
     FM030300 09005KT 3SM SHRA BR OVC004=



000
FTUS41 KPHI 020808 AAA
TAFPHL
TAF AMD
KPHL 020808Z 0208/0312 06005KT P6SM OVC006
      TEMPO 0208/0210 5SM -DZ BR OVC004
     FM021000 10005KT 4SM -SHRA BR OVC004
     FM021500 14005KT 6SM BR OVC007
     FM021900 17007KT P6SM OVC015
     FM030000 14005KT 5SM -SHRA BR OVC007
     FM030300 08005KT 3SM SHRA BR OVC004=



000
FTUS41 KPHI 020530
TAFTTN
TAF
KTTN 020530Z 0206/0306 09005KT 4SM BR OVC004
      TEMPO 0206/0210 2SM -DZ BR
     FM021000 09005KT 2SM -DZ BR OVC004
     FM021300 10005KT 4SM -SHRA BR OVC004
     FM021500 13007KT 6SM BR OVC007
     FM021900 16007KT P6SM OVC010
     FM030000 09005KT 5SM -SHRA BR OVC007
     FM030300 06005KT 3SM SHRA BR OVC004=



000
FTUS41 KPHI 020530
TAFTTN
TAF
KTTN 020530Z 0206/0306 09005KT 4SM BR OVC004
      TEMPO 0206/0210 2SM -DZ BR
     FM021000 09005KT 2SM -DZ BR OVC004
     FM021300 10005KT 4SM -SHRA BR OVC004
     FM021500 13007KT 6SM BR OVC007
     FM021900 16007KT P6SM OVC010
     FM030000 09005KT 5SM -SHRA BR OVC007
     FM030300 06005KT 3SM SHRA BR OVC004=



000
FTUS41 KPHI 020530
TAFRDG
TAF
KRDG 020530Z 0206/0306 10003KT P6SM OVC005
      TEMPO 0207/0210 5SM -SHRA BR
     FM021000 09005KT 3SM -DZ BR OVC004
     FM021300 12005KT 5SM -SHRA BR OVC004
     FM021500 15007KT 6SM BR OVC007
     FM022000 19005KT P6SM VCSH OVC010
     FM030000 09005KT 5SM -SHRA BR OVC007
     FM030300 04005KT 3SM SHRA BR OVC004=



000
FTUS41 KPHI 020530
TAFILG
TAF
KILG 020530Z 0206/0306 05005KT 6SM BR OVC004
      TEMPO 0206/0208 3SM -DZ BR
     FM020800 09005KT 2SM -DZ BR OVC004
     FM021000 10005KT 4SM -SHRA BR OVC004
     FM021500 14005KT 6SM BR OVC007
     FM021900 17007KT P6SM OVC015
     FM030000 13005KT 5SM -SHRA BR OVC007
     FM030300 07005KT 3SM SHRA BR OVC004=



000
FTUS41 KPHI 020530
TAFPHL
TAF
KPHL 020530Z 0206/0312 06005KT 6SM BR BKN004 OVC010
      TEMPO 0206/0208 3SM -DZ BR OVC004
     FM020800 09005KT 2SM -DZ BR OVC004
     FM021000 10005KT 4SM -SHRA BR OVC004
     FM021500 14005KT 6SM BR OVC007
     FM021900 17007KT P6SM OVC015
     FM030000 14005KT 5SM -SHRA BR OVC007
     FM030300 08005KT 3SM SHRA BR OVC004=



000
FTUS41 KPHI 020530
TAFPNE
TAF
KPNE 020530Z 0206/0306 07007KT 6SM BR OVC004
      TEMPO 0206/0209 3SM -DZ BR
     FM020900 09005KT 2SM -DZ BR OVC004
     FM021100 10005KT 4SM -SHRA BR OVC004
     FM021500 13007KT 6SM BR OVC007
     FM021900 16007KT P6SM OVC015
     FM030000 10005KT 5SM -SHRA BR OVC007
     FM030300 05005KT 3SM SHRA BR OVC004=



000
FTUS41 KPHI 020530
TAFMIV
TAF
KMIV 020530Z 0206/0306 04005KT P6SM OVC004
      TEMPO 0207/0210 3SM -SHRA BR
     FM021000 07005KT 2SM BR OVC004
     FM021200 07005KT 4SM -SHRA BR OVC004
     FM021500 13005KT 6SM BR OVC007
     FM021900 18007KT P6SM OVC015
     FM030000 13005KT 5SM -SHRA BR OVC007
     FM030300 08005KT 3SM SHRA BR OVC004=



000
FTUS41 KPHI 020530
TAFACY
TAF
KACY 020530Z 0206/0306 05007KT 3SM BR OVC003
      TEMPO 0206/0209 1SM -SHRA BR
     FM020900 07005KT 1SM -DZ BR OVC004
     FM021100 07005KT 3SM -SHRA BR OVC004
     FM021500 13005KT 6SM BR OVC007
     FM021900 19007KT P6SM OVC015
     FM030000 14005KT 5SM -SHRA BR OVC007
     FM030300 09005KT 3SM SHRA BR OVC004=



000
FTUS41 KPHI 020530
TAFABE
TAF
KABE 020530Z 0206/0306 09005KT 4SM BR OVC004
      TEMPO 0207/0210 2SM -DZ BR
     FM021000 09005KT 2SM -DZ BR OVC004
     FM021300 10005KT 4SM -SHRA BR OVC004
     FM021500 13007KT 6SM BR OVC007
     FM022000 09005KT P6SM OVC010
     FM030000 05005KT 5SM -SHRA BR OVC007
     FM030300 04005KT 3SM SHRA BR OVC004=



000
FTUS41 KPHI 020419 AAD
TAFPHL
TAF AMD
KPHL 020419Z 0204/0306 06005KT 6SM BR OVC004
      TEMPO 0204/0206 3SM -DZ BR
     FM020600 05005KT 2SM -DZ BR OVC004
     FM021300 09003KT 5SM -SHRA BR OVC004
     FM021700 15005KT 5SM BR OVC007
     FM022100 18007KT P6SM OVC015
     FM030000 17005KT 5SM SHRA BR OVC008=



000
FTUS41 KPHI 020312 AAB
TAFACY
TAF AMD
KACY 020312Z 0203/0224 03008KT P6SM OVC003
     FM020600 05006KT 2SM -DZ BR OVC002
     FM021500 10005KT 5SM -SHRA BR OVC004
     FM021800 16008KT 5SM BR OVC007
     FM022000 18005KT P6SM OVC015
     FM022300 17005KT 5SM SHRA BR OVC008=



000
FTUS41 KPHI 020312 AAB
TAFMIV
TAF AMD
KMIV 020312Z 0203/0224 04004KT P6SM OVC005
     FM020600 08003KT 2SM -DZ BR OVC002
     FM021400 08004KT 3SM -SHRA BR OVC004
     FM021800 18005KT 5SM BR OVC007
     FM022000 18005KT P6SM OVC015
     FM022300 17005KT 5SM SHRA BR OVC008=



000
FTUS41 KPHI 020312 AAB
TAFACY
TAF AMD
KACY 020312Z 0203/0224 03008KT P6SM OVC003
     FM020600 05006KT 2SM -DZ BR OVC002
     FM021500 10005KT 5SM -SHRA BR OVC004
     FM021800 16008KT 5SM BR OVC007
     FM022000 18005KT P6SM OVC015
     FM022300 17005KT 5SM SHRA BR OVC008=



000
FTUS41 KPHI 020311 AAC
TAFPHL
TAF AMD
KPHL 020311Z 0203/0306 06007KT P6SM OVC004
     FM020600 05005KT 2SM -DZ BR OVC004
     FM021300 09003KT 5SM -SHRA BR OVC004
     FM021700 15005KT 5SM BR OVC007
     FM022100 18007KT P6SM OVC015
     FM030000 17005KT 5SM SHRA BR OVC008=



000
FTUS41 KPHI 020202 AAB
TAFRDG
TAF AMD
KRDG 020202Z 0202/0224 10003KT 6SM -DZ BR OVC003
     FM020500 VRB03KT 2SM -SHRADZ BR OVC003
     FM021200 VRB03KT 5SM -SHRA BR BKN008 OVC015
     FM021800 17004KT 5SM BR OVC015
     FM022100 18005KT P6SM OVC030=



000
FTUS41 KPHI 020202 AAB
TAFPHL
TAF AMD
KPHL 020202Z 0202/0306 06007KT 6SM -DZ BR OVC005
     FM020400 05005KT 2SM -SHRADZ BR OVC004
     FM021300 09003KT 5SM -SHRA BR OVC004
     FM021700 15005KT 5SM BR OVC007
     FM022100 18007KT P6SM OVC015
     FM030000 17005KT 5SM SHRA BR OVC008=



000
FTUS41 KPHI 020059 AAA
TAFRDG
TAF AMD
KRDG 020059Z 0201/0224 10003KT 6SM -DZ BR OVC006
     FM020500 VRB03KT 2SM -SHRADZ BR OVC004
     FM021200 VRB03KT 5SM -SHRA BR BKN008 OVC015
     FM021800 17004KT 5SM BR OVC015
     FM022100 18005KT P6SM OVC030=



000
FTUS41 KPHI 020059 AAA
TAFABE
TAF AMD
KABE 020059Z 0201/0224 10005KT 6SM -DZ BR OVC004
     FM020600 06004KT 2SM -SHRADZ BR OVC004
     FM021300 VRB03KT 5SM -SHRA BR BKN008 OVC015
     FM021900 17004KT 5SM BR OVC015
     FM022200 18005KT P6SM OVC030=



000
FTUS41 KPHI 020059 AAA
TAFPHL
TAF AMD
KPHL 020059Z 0201/0306 06007KT 6SM -DZ BR OVC007
     FM020400 05005KT 2SM -SHRADZ BR OVC004
     FM021300 09003KT 5SM -SHRA BR OVC004
     FM021700 15005KT 5SM BR OVC007
     FM022100 18007KT P6SM OVC015
     FM030000 17005KT 5SM SHRA BR OVC008=



000
FTUS41 KPHI 020059 AAA
TAFTTN
TAF AMD
KTTN 020059Z 0201/0224 09007KT 6SM -DZ BR OVC005
     FM020400 05006KT 1SM -SHRADZ BR OVC002
     FM021300 VRB03KT 5SM -SHRA BR OVC004
     FM021800 17004KT 5SM BR OVC007
     FM022200 18005KT P6SM OVC015=



000
FTUS41 KPHI 020059 AAA
TAFILG
TAF AMD
KILG 020059Z 0201/0224 05006KT 6SM -DZ BR OVC005
     FM020400 06006KT 2SM -SHRADZ BR OVC004
     FM021300 12003KT 5SM -SHRA BR OVC004
     FM021700 15005KT 5SM BR OVC007
     FM022000 18007KT P6SM OVC015
     FM022300 17005KT 5SM SHRA BR OVC008=



000
FTUS41 KPHI 020059 AAA
TAFACY
TAF AMD
KACY 020059Z 0201/0224 03006KT 3SM -DZ BR OVC003
     FM020400 05006KT 1SM -SHRADZ BR OVC002
     FM021500 10005KT 5SM -SHRA BR OVC004
     FM021800 16008KT 5SM BR OVC007
     FM022000 18005KT P6SM OVC015
     FM022300 17005KT 5SM SHRA BR OVC008=



000
FTUS41 KPHI 020059 AAA
TAFMIV
TAF AMD
KMIV 020059Z 0201/0224 04004KT 4SM -DZ BR OVC004
     FM020400 08003KT 1SM -SHRADZ BR OVC002
     FM021400 08004KT 3SM -SHRA BR OVC004
     FM021800 18005KT 5SM BR OVC007
     FM022000 18005KT P6SM OVC015
     FM022300 17005KT 5SM SHRA BR OVC008=



000
FTUS41 KPHI 020059 AAA
TAFPNE
TAF AMD
KPNE 020059Z 0201/0224 07006KT 6SM -DZ BR OVC005
     FM020400 06004KT 2SM -SHRADZ BR OVC004
     FM021300 09003KT 5SM -SHRA BR OVC004
     FM021700 14005KT 5SM BR OVC007
     FM022100 18007KT P6SM OVC015=



000
FTUS41 KPHI 012325
TAFMIV
TAF
KMIV 012325Z 0200/0224 04004KT 2SM -DZ BR OVC004
     FM020400 08003KT 1SM -SHRADZ BR OVC002
     FM021400 08004KT 3SM -SHRA BR OVC004
     FM021800 18005KT 5SM BR OVC007
     FM022200 18005KT P6SM OVC015=



000
FTUS41 KPHI 012325
TAFILG
TAF
KILG 012325Z 0200/0224 08006KT 6SM -DZ BR OVC008
     FM020200 07006KT 4SM -SHRADZ BR OVC006
     FM020400 06006KT 2SM -SHRADZ BR OVC004
     FM021300 12003KT 5SM -SHRA BR OVC004
     FM021700 15005KT 5SM BR OVC007
     FM022000 18007KT P6SM OVC015=



000
FTUS41 KPHI 012325
TAFPNE
TAF
KPNE 012325Z 0200/0224 07006KT 6SM -DZ BR OVC006
     FM020200 07006KT 4SM -SHRADZ BR OVC006
     FM020400 06004KT 2SM -SHRADZ BR OVC004
     FM021300 09003KT 5SM -SHRA BR OVC004
     FM021700 14005KT 5SM BR OVC007
     FM022100 18007KT P6SM OVC015=



000
FTUS41 KPHI 012325
TAFABE
TAF
KABE 012325Z 0200/0224 11005KT 3SM -DZ BR OVC007
     FM020600 06004KT 2SM -SHRADZ BR OVC004
     FM021300 VRB03KT 5SM -SHRA BR BKN008 OVC015
     FM021900 17004KT 5SM BR OVC015
     FM022200 18005KT P6SM OVC030=



000
FTUS41 KPHI 012325
TAFTTN
TAF
KTTN 012325Z 0200/0224 09007KT 3SM -DZ BR OVC005
     FM020400 05006KT 1SM -SHRADZ BR OVC002
     FM021300 VRB03KT 5SM -SHRA BR OVC004
     FM021800 17004KT 5SM BR OVC007
     FM022200 18005KT P6SM OVC015=



000
FTUS41 KPHI 012325
TAFACY
TAF
KACY 012325Z 0200/0224 05006KT 2SM -DZ BR OVC003
     FM020400 05006KT 1SM -SHRADZ BR OVC002
     FM021500 10005KT 5SM -SHRA BR OVC004
     FM021900 16008KT 5SM BR OVC007
     FM022300 17007KT P6SM OVC015=



000
FTUS41 KPHI 012325
TAFPHL
TAF
KPHL 012325Z 0200/0306 05005KT 2SM -DZ BR BKN005 OVC008
     FM020400 05005KT 2SM -SHRADZ BR OVC004
     FM021300 09003KT 5SM -SHRA BR OVC004
     FM021700 15005KT 5SM BR OVC007
     FM022100 18007KT P6SM OVC015
     FM030200 17005KT 5SM BR OVC008=



000
FTUS41 KPHI 012325
TAFRDG
TAF
KRDG 012325Z 0200/0224 10003KT 5SM -DZ BR OVC007
     FM020500 VRB03KT 2SM -SHRADZ BR OVC004
     FM021200 VRB03KT 5SM -SHRA BR BKN008 OVC015
     FM021800 17004KT 5SM BR OVC015
     FM022100 18005KT P6SM OVC030=



000
FTUS41 KPHI 012058 AAA
TAFPHL
TAF AMD
KPHL 012058Z 0121/0224 10005KT 5SM BR BKN007 OVC015
     FM012200 09006KT P6SM BKN007 OVC015
     FM020400 05006KT 4SM -DZ BR OVC004
     FM021400 09006KT P6SM BKN007 OVC015
     FM021800 17006KT P6SM BKN015
     FM022000 19006KT P6SM BKN030=



000
FTUS41 KPHI 012028 AAA
TAFMIV
TAF AMD
KMIV 012028Z 0120/0218 09005KT 3SM -SHRA BR BKN005 OVC020
     FM012300 08006KT P6SM BKN007 OVC015
     FM020400 05006KT 4SM -DZ BR OVC004
     FM021400 10006KT P6SM BKN007 OVC015=



000
FTUS41 KPHI 012019 AAA
TAFACY
TAF AMD
KACY 012019Z 0120/0218 07005KT 2SM -SHRA BR BKN004 OVC025
     FM012200 06008KT P6SM BKN006 OVC015
     FM020400 04006KT 4SM -DZ BR OVC004
     FM021400 10008KT P6SM BKN007 OVC015=



000
FTUS41 KPHI 011829 AAA
TAFABE
TAF AMD
KABE 011829Z 0118/0218 12006KT 4SM BR OVC008
     FM012200 07006KT 4SM BR OVC008
     FM020200 05004KT 2SM -DZ BR OVC004
     FM021400 VRB03KT P6SM BKN008 OVC015=



000
FTUS41 KPHI 011829 AAA
TAFABE
TAF AMD
KABE 011829Z 0118/0218 12006KT 4SM BR OVC008
     FM012200 07006KT 4SM BR OVC008
     FM020200 05004KT 2SM -DZ BR OVC004
     FM021400 VRB03KT P6SM BKN008 OVC015=



000
FTUS41 KPHI 011740
TAFPHL
TAF
KPHL 011740Z 0118/0224 08008KT 6SM -SHRA BR BKN007 OVC015
     FM012200 05006KT P6SM BKN007 OVC015
     FM020400 05006KT 4SM -DZ BR OVC004
     FM021400 09006KT P6SM BKN007 OVC015
     FM021800 17006KT P6SM BKN015
     FM022000 19006KT P6SM BKN030=



000
FTUS41 KPHI 011740
TAFTTN
TAF
KTTN 011740Z 0118/0218 10006KT 6SM -SHRA BR BKN007 OVC015
     FM012200 06006KT P6SM BKN007 OVC015
     FM020400 06006KT 4SM -DZ BR OVC004
     FM021400 10006KT P6SM BKN007 OVC015=



000
FTUS41 KPHI 011740
TAFPNE
TAF
KPNE 011740Z 0118/0218 09006KT 4SM -SHRA BR BKN007 OVC015
     FM012200 05006KT P6SM BKN007 OVC015
     FM020400 05006KT 4SM -DZ BR OVC004
     FM021400 09006KT P6SM BKN007 OVC015=



000
FTUS41 KPHI 011740
TAFACY
TAF
KACY 011740Z 0118/0218 09010KT 4SM RA BR BKN007 OVC015
     FM012000 09008KT 6SM -SHRA BR BKN007 OVC015
     FM012200 06008KT P6SM BKN007 OVC015
     FM020400 04006KT 4SM -DZ BR OVC004
     FM021400 10008KT P6SM BKN007 OVC015=



000
FTUS41 KPHI 011740
TAFMIV
TAF
KMIV 011740Z 0118/0218 12006KT 2SM RA BR BKN007 OVC015
     FM012000 09006KT 4SM -SHRA BR BKN007 OVC015
     FM012300 08006KT P6SM BKN007 OVC015
     FM020400 05006KT 4SM -DZ BR OVC004
     FM021400 10006KT P6SM BKN007 OVC015=



000
FTUS41 KPHI 011740
TAFRDG
TAF
KRDG 011740Z 0118/0218 10006KT P6SM OVC008
     FM012200 VRB03KT P6SM OVC008
     FM020200 VRB03KT 4SM -DZ BR OVC004
     FM021400 VRB03KT P6SM BKN008 OVC015=



000
FTUS41 KPHI 011740
TAFILG
TAF
KILG 011740Z 0118/0218 10006KT 6SM -SHRA BR BKN007 OVC015
     FM012200 05006KT P6SM BKN007 OVC015
     FM020400 05006KT 4SM -DZ BR OVC004
     FM021400 11006KT P6SM BKN007 OVC015=



000
FTUS41 KPHI 011740
TAFABE
TAF
KABE 011740Z 0118/0218 12006KT P6SM OVC008
     FM012200 07006KT P6SM OVC008
     FM020200 05004KT 4SM -DZ BR OVC004
     FM021400 VRB03KT P6SM BKN008 OVC015=



000
FTUS41 KPHI 011502 AAC
TAFPHL
TAF AMD
KPHL 011502Z 0115/0218 12006KT 5SM -RA BR SCT007 OVC015
      TEMPO 0115/0116 BKN007 OVC015
     FM011600 12008KT 2SM -RA BR OVC007
     FM020000 08008KT 2SM -DZ BR OVC006
     FM021000 05008KT 2SM -DZ BR OVC006=



000
FTUS41 KPHI 011412 AAA
TAFMIV
TAF AMD
KMIV 011412Z 0114/0212 11006KT 4SM -RA BR SCT007 OVC035
      TEMPO 0114/0116 BKN007 OVC035
     FM011600 13008KT 2SM -RA BR OVC007
     FM020100 08008KT 2SM -DZ BR OVC006=



000
FTUS41 KPHI 011412 AAA
TAFACY
TAF AMD
KACY 011412Z 0114/0212 11006KT 4SM -RA BR SCT007 OVC035
      TEMPO 0114/0117 BKN007 OVC035
     FM011700 13008KT 2SM -RA BR OVC007
     FM020100 08008KT 2SM -DZ BR OVC006=



000
FTUS41 KPHI 011409 AAA
TAFRDG
TAF AMD
KRDG 011409Z 0114/0212 12005KT 6SM -RA BR SCT006 OVC012
      TEMPO 0114/0116 4SM -RA OVC006
     FM011600 13006KT 2SM -RA BR OVC006
     FM020000 08008KT 2SM -DZ BR OVC006=



000
FTUS41 KPHI 011409 AAB
TAFABE
TAF AMD
KABE 011409Z 0114/0212 11004KT 4SM -RA BR SCT006 OVC012
      TEMPO 0115/0117 BKN006 OVC012
     FM011700 12006KT 2SM -RA BR OVC006
     FM020000 08008KT 2SM -DZ BR OVC006=



000
FTUS41 KPHI 011407 AAB
TAFPNE
TAF AMD
KPNE 011407Z 0114/0212 12006KT 4SM -RA BR SCT007 OVC015
      TEMPO 0114/0116 BKN007 OVC015
     FM011600 12008KT 2SM -RA BR OVC007
     FM020000 08008KT 2SM -DZ BR OVC006=



000
FTUS41 KPHI 011407 AAA
TAFTTN
TAF AMD
KTTN 011407Z 0114/0212 12004KT 4SM -RA BR SCT015 OVC035
     FM011500 13006KT 4SM -RA SCT007 OVC015
      TEMPO 0115/0117 BKN007 OVC015
     FM011700 13008KT 2SM -RA BR OVC007
     FM020100 08008KT 2SM -DZ BR OVC006=



000
FTUS41 KPHI 011405 AAA
TAFILG
TAF AMD
KILG 011405Z 0114/0212 11006KT 5SM -RA BR SCT007 OVC015
      TEMPO 0114/0116 BKN007 OVC015
     FM011600 13008KT 2SM -RA BR OVC007
     FM020000 08008KT 2SM -DZ BR OVC006=



000
FTUS41 KPHI 011405 AAB
TAFPHL
TAF AMD
KPHL 011405Z 0114/0218 12006KT 5SM -RA BR SCT007 OVC015
      TEMPO 0114/0116 BKN007 OVC015
     FM011600 12008KT 2SM -RA BR OVC007
     FM020000 08008KT 2SM -DZ BR OVC006
     FM021000 05008KT 2SM -DZ BR OVC006=



000
FTUS41 KPHI 011316 AAA
TAFPNE
TAF AMD
KPNE 011316Z 0113/0212 10004KT 3SM -RA BR BKN015 OVC035
     FM011500 11008KT 2SM RA BR OVC009
     FM011800 10006KT 1SM RA BR OVC004
     FM020000 08008KT 2SM -DZ BR OVC006=



000
FTUS41 KPHI 011315 AAA
TAFABE
TAF AMD
KABE 011315Z 0113/0212 10004KT 4SM -RA BR BKN014 OVC025
     FM011500 11008KT 2SM RA BR OVC009
     FM011900 12006KT 1SM RA BR OVC004
     FM020000 08008KT 2SM -DZ BR OVC006=



000
FTUS41 KPHI 011233 AAA
TAFPHL
TAF AMD
KPHL 011233Z 0113/0218 10006KT 5SM -RA BR BKN015 OVC035
     FM011500 12008KT 2SM RA BR OVC009
     FM011800 12006KT 1SM RA BR OVC004
     FM020000 08008KT 2SM -DZ BR OVC006
     FM021000 05008KT 2SM -DZ BR OVC006=



000
FTUS41 KPHI 011124
TAFPNE
TAF
KPNE 011124Z 0112/0212 13005KT 4SM -RA BR OVC035
     FM011300 12009KT 3SM -RA SCT009 OVC025
     FM011500 11008KT 2SM RA BR OVC009
     FM011800 10006KT 1SM RA BR OVC004
     FM020000 08008KT 2SM -DZ BR OVC006=



000
FTUS41 KPHI 011124
TAFRDG
TAF
KRDG 011124Z 0112/0212 12005KT 5SM -RA BR OVC035
     FM011300 14007KT 5SM -RA BR SCT009 OVC025
     FM011500 13005KT 2SM RA BR OVC009
     FM011800 12003KT 1SM RA BR OVC004
     FM020000 08008KT 2SM -DZ BR OVC006=



000
FTUS41 KPHI 011124
TAFACY
TAF
KACY 011124Z 0112/0212 11005KT P6SM -RA OVC035
     FM011300 12008KT 5SM -RA SCT009 OVC025
     FM011700 13008KT 2SM RA BR OVC009
     FM011900 13007KT 1SM RA BR OVC005
     FM020100 08008KT 2SM -DZ BR OVC006=



000
FTUS41 KPHI 011124
TAFILG
TAF
KILG 011124Z 0112/0212 11006KT 5SM -RA BR OVC035
     FM011300 11008KT 5SM -RA SCT009 OVC025
     FM011500 13009KT 2SM RA BR OVC009
     FM011800 13005KT 1SM RA BR OVC004
     FM020000 08008KT 2SM -DZ BR OVC006=



000
FTUS41 KPHI 011124
TAFMIV
TAF
KMIV 011124Z 0112/0212 10004KT P6SM -RA OVC035
     FM011300 12005KT 5SM -RA SCT009 OVC025
     FM011600 13008KT 2SM RA BR OVC009
     FM011900 12005KT 1SM RA BR OVC005
     FM020100 08008KT 2SM -DZ BR OVC006=



000
FTUS41 KPHI 011124
TAFABE
TAF
KABE 011124Z 0112/0212 12006KT P6SM -RA OVC035
     FM011300 12008KT 5SM -RA BR SCT009 OVC025
     FM011500 11008KT 2SM RA BR OVC009
     FM011900 12006KT 1SM RA BR OVC004
     FM020000 08008KT 2SM -DZ BR OVC006=



000
FTUS41 KPHI 011124
TAFPHL
TAF
KPHL 011124Z 0112/0218 12005KT 5SM -RA BR SCT012 OVC035
     FM011300 12008KT 5SM -RA SCT009 OVC025
     FM011500 12008KT 2SM RA BR OVC009
     FM011800 12006KT 1SM RA BR OVC004
     FM020000 08008KT 2SM -DZ BR OVC006
     FM021000 05008KT 2SM -DZ BR OVC006=



000
FTUS41 KPHI 011124
TAFTTN
TAF
KTTN 011124Z 0112/0212 12004KT P6SM -RA OVC035
     FM011400 13006KT 5SM -RA SCT009 OVC025
     FM011600 13008KT 2SM RA BR OVC009
     FM011900 11006KT 1SM RA BR OVC004
     FM020100 08008KT 2SM -DZ BR OVC006=



000
FTUS41 KPHI 011044 AAB
TAFILG
TAF AMD
KILG 011044Z 0111/0206 11006KT P6SM -RA OVC035
     FM011200 11008KT 5SM -RA SCT009 OVC025
     FM011400 13009KT 2SM RA BR OVC009
     FM011800 13005KT 1SM RA BR OVC004
     FM020000 08008KT 2SM -DZ BR OVC006=



000
FTUS41 KPHI 011044 AAC
TAFPHL
TAF AMD
KPHL 011044Z 0111/0212 12005KT P6SM -RA OVC035
     FM011200 12008KT 5SM -RA SCT009 OVC025
     FM011500 12008KT 2SM RA BR OVC009
     FM011800 12006KT 1SM RA BR OVC004
     FM020000 08008KT 2SM -DZ BR OVC006
     FM021000 05008KT 2SM -DZ BR OVC006=



000
FTUS41 KPHI 011044 AAC
TAFPHL
TAF AMD
KPHL 011044Z 0111/0212 12005KT P6SM -RA OVC035
     FM011200 12008KT 5SM -RA SCT009 OVC025
     FM011500 12008KT 2SM RA BR OVC009
     FM011800 12006KT 1SM RA BR OVC004
     FM020000 08008KT 2SM -DZ BR OVC006
     FM021000 05008KT 2SM -DZ BR OVC006=



000
FTUS41 KPHI 011044 AAB
TAFPNE
TAF AMD
KPNE 011044Z 0111/0206 13005KT P6SM -RA OVC035
     FM011200 12009KT 3SM -RA SCT009 OVC025
     FM011500 11008KT 2SM RA BR OVC009
     FM011800 10006KT 1SM RA BR OVC004
     FM020000 08008KT 2SM -DZ BR OVC006=



000
FTUS41 KPHI 011044 AAB
TAFPNE
TAF AMD
KPNE 011044Z 0111/0206 13005KT P6SM -RA OVC035
     FM011200 12009KT 3SM -RA SCT009 OVC025
     FM011500 11008KT 2SM RA BR OVC009
     FM011800 10006KT 1SM RA BR OVC004
     FM020000 08008KT 2SM -DZ BR OVC006=



000
FTUS41 KPHI 011044 AAB
TAFRDG
TAF AMD
KRDG 011044Z 0111/0206 15005KT P6SM -RA OVC035
     FM011200 14007KT 5SM -RA BR SCT009 OVC025
     FM011400 13005KT 2SM RA BR OVC009
     FM011800 12003KT 1SM RA BR OVC004
     FM020000 08008KT 2SM -DZ BR OVC006=



000
FTUS41 KPHI 011044 AAB
TAFRDG
TAF AMD
KRDG 011044Z 0111/0206 15005KT P6SM -RA OVC035
     FM011200 14007KT 5SM -RA BR SCT009 OVC025
     FM011400 13005KT 2SM RA BR OVC009
     FM011800 12003KT 1SM RA BR OVC004
     FM020000 08008KT 2SM -DZ BR OVC006=



000
FTUS41 KPHI 011044 AAB
TAFILG
TAF AMD
KILG 011044Z 0111/0206 11006KT P6SM -RA OVC035
     FM011200 11008KT 5SM -RA SCT009 OVC025
     FM011400 13009KT 2SM RA BR OVC009
     FM011800 13005KT 1SM RA BR OVC004
     FM020000 08008KT 2SM -DZ BR OVC006=



000
FTUS41 KPHI 010855 AAB
TAFPHL
TAF AMD
KPHL 010855Z 0109/0212 12005KT P6SM -RA OVC035
     FM011000 12008KT 5SM -RA SCT009 OVC025
     FM011500 12008KT 2SM RA BR OVC009
     FM011800 12006KT 1SM RA BR OVC004
     FM020000 08008KT 2SM -DZ BR OVC006
     FM021000 05008KT 2SM -DZ BR OVC006=



000
FTUS41 KPHI 010855 AAB
TAFPHL
TAF AMD
KPHL 010855Z 0109/0212 12005KT P6SM -RA OVC035
     FM011000 12008KT 5SM -RA SCT009 OVC025
     FM011500 12008KT 2SM RA BR OVC009
     FM011800 12006KT 1SM RA BR OVC004
     FM020000 08008KT 2SM -DZ BR OVC006
     FM021000 05008KT 2SM -DZ BR OVC006=



000
FTUS41 KPHI 010743 AAA
TAFRDG
TAF AMD
KRDG 010743Z 0108/0206 15005KT P6SM -RA OVC035
     FM011000 14007KT 5SM -RA BR SCT009 OVC025
     FM011400 13005KT 2SM RA BR OVC009
     FM011800 12003KT 1SM RA BR OVC004
     FM020000 08008KT 2SM -DZ BR OVC006=



000
FTUS41 KPHI 010743 AAA
TAFILG
TAF AMD
KILG 010743Z 0108/0206 11006KT P6SM -RA OVC035
     FM011000 11008KT 5SM -RA SCT009 OVC025
     FM011300 13009KT 2SM RA BR OVC009
     FM011800 13005KT 1SM RA BR OVC004
     FM020000 08008KT 2SM -DZ BR OVC006=



000
FTUS41 KPHI 010743 AAA
TAFABE
TAF AMD
KABE 010743Z 0108/0206 12006KT P6SM -RA OVC035
     FM011100 12008KT 5SM -RA BR SCT009 OVC025
     FM011500 11008KT 2SM RA BR OVC009
     FM011900 12006KT 1SM RA BR OVC004
     FM020000 08008KT 2SM -DZ BR OVC006=



000
FTUS41 KPHI 010743 AAA
TAFPHL
TAF AMD
KPHL 010743Z 0108/0212 12005KT P6SM -RA OVC035
     FM011000 12008KT 5SM -RA SCT009 OVC025
     FM011500 12008KT 2SM RA BR OVC009
     FM011800 12006KT 1SM RA BR OVC004
     FM020000 08008KT 2SM -DZ BR OVC006
     FM021000 05008KT 2SM -DZ BR OVC006=



000
FTUS41 KPHI 010743 AAA
TAFACY
TAF AMD
KACY 010743Z 0108/0206 12008KT P6SM SCT045
     FM011000 11005KT P6SM -RA OVC035
     FM011300 12008KT 5SM -RA SCT009 OVC025
     FM011700 13008KT 2SM RA BR OVC009
     FM011900 13007KT 1SM RA BR OVC005
     FM020100 08008KT 2SM -DZ BR OVC006=



000
FTUS41 KPHI 010743 AAA
TAFMIV
TAF AMD
KMIV 010743Z 0108/0206 VRB02KT P6SM SCT045
     FM011000 10004KT P6SM -RA OVC035
     FM011300 12005KT 5SM -RA SCT009 OVC025
     FM011600 13008KT 2SM RA BR OVC009
     FM011900 12005KT 1SM RA BR OVC005
     FM020100 08008KT 2SM -DZ BR OVC006=



000
FTUS41 KPHI 010743 AAA
TAFTTN
TAF AMD
KTTN 010743Z 0108/0206 12004KT P6SM -RA OVC035
     FM011100 13006KT 5SM -RA SCT009 OVC025
     FM011600 13008KT 2SM RA BR OVC009
     FM011900 11006KT 1SM RA BR OVC004
     FM020100 08008KT 2SM -DZ BR OVC006=



000
FTUS41 KPHI 010743 AAA
TAFPNE
TAF AMD
KPNE 010743Z 0108/0206 13005KT P6SM -RA OVC035
     FM011000 12009KT 3SM -RA SCT009 OVC025
     FM011500 11008KT 2SM RA BR OVC009
     FM011800 10006KT 1SM RA BR OVC004
     FM020000 08008KT 2SM -DZ BR OVC006=



000
FTUS41 KPHI 010531
TAFILG
TAF
KILG 010531Z 0106/0206 11006KT P6SM -RA OVC035
     FM010800 11008KT 5SM -RA SCT009 OVC025
     FM011300 13009KT 2SM RA BR OVC009
     FM011800 13005KT 1SM RA BR OVC004
     FM020000 08008KT 2SM -DZ BR OVC006=



000
FTUS41 KPHI 010531
TAFABE
TAF
KABE 010531Z 0106/0206 12006KT P6SM -RA OVC035
     FM010900 09008KT 5SM -RA BR SCT009 OVC025
     FM011300 11008KT 2SM RA BR OVC009
     FM011900 12006KT 1SM RA BR OVC004
     FM020000 08008KT 2SM -DZ BR OVC006=



000
FTUS41 KPHI 010531
TAFACY
TAF
KACY 010531Z 0106/0206 12008KT P6SM SCT045
     FM010700 11005KT P6SM -RA OVC035
     FM011000 12008KT 5SM -RA SCT009 OVC025
     FM011600 13008KT 2SM RA BR OVC009
     FM011900 13007KT 1SM RA BR OVC005
     FM020100 08008KT 2SM -DZ BR OVC006=



000
FTUS41 KPHI 010531
TAFRDG
TAF
KRDG 010531Z 0106/0206 15005KT P6SM -RA OVC035
     FM010800 14007KT 5SM -RA BR SCT009 OVC025
     FM011200 13005KT 2SM RA BR OVC009
     FM011800 12003KT 1SM RA BR OVC004
     FM020000 08008KT 2SM -DZ BR OVC006=



000
FTUS41 KPHI 010531
TAFTTN
TAF
KTTN 010531Z 0106/0206 12004KT P6SM -RA OVC035
     FM010900 13006KT 5SM -RA SCT009 OVC025
     FM011400 13008KT 2SM RA BR OVC009
     FM011900 11006KT 1SM RA BR OVC004
     FM020100 08008KT 2SM -DZ BR OVC006=



000
FTUS41 KPHI 010531
TAFPHL
TAF
KPHL 010531Z 0106/0212 11005KT P6SM -RA OVC035
     FM010800 08008KT 5SM -RA SCT009 OVC025
     FM011300 12008KT 2SM RA BR OVC009
     FM011800 12006KT 1SM RA BR OVC004
     FM020000 08008KT 2SM -DZ BR OVC006
     FM021000 05008KT 2SM -DZ BR OVC006=



000
FTUS41 KPHI 010531
TAFMIV
TAF
KMIV 010531Z 0106/0206 11007KT P6SM SCT045
     FM010700 09004KT P6SM -RA OVC035
     FM011000 09005KT 5SM -RA SCT009 OVC025
     FM011500 13008KT 2SM RA BR OVC009
     FM011900 12005KT 1SM RA BR OVC005
     FM020100 08008KT 2SM -DZ BR OVC006=



000
FTUS41 KPHI 010531
TAFPNE
TAF
KPNE 010531Z 0106/0206 08005KT P6SM -RA OVC035
     FM010800 09009KT 3SM -RA SCT009 OVC025
     FM011300 11008KT 2SM RA BR OVC009
     FM011800 10006KT 1SM RA BR OVC004
     FM020000 08008KT 2SM -DZ BR OVC006=



000
FTUS41 KPHI 010531
TAFRDG
TAF
KRDG 010531Z 0106/0206 15005KT P6SM -RA OVC035
     FM010800 14007KT 5SM -RA BR SCT009 OVC025
     FM011200 13005KT 2SM RA BR OVC009
     FM011800 12003KT 1SM RA BR OVC004
     FM020000 08008KT 2SM -DZ BR OVC006=



000
FTUS41 KPHI 302330
TAFPHL
TAF
KPHL 302330Z 0100/0206 16007KT P6SM OVC045
     FM010400 11005KT P6SM -RA OVC035
     FM010800 08008KT 5SM -RA SCT009 OVC025
     FM011300 12008KT 2SM RA BR OVC009
     FM011800 12006KT 1SM RA BR OVC004
     FM020000 08008KT 2SM -DZ BR OVC006=



000
FTUS41 KPHI 302330
TAFTTN
TAF
KTTN 302330Z 0100/0124 17007KT P6SM OVC035
     FM010500 12004KT P6SM -RA OVC035
     FM010900 13006KT 5SM -RA SCT009 OVC025
     FM011400 13008KT 2SM RA BR OVC009
     FM011900 11006KT 1SM RA BR OVC004=



000
FTUS41 KPHI 302330
TAFMIV
TAF
KMIV 302330Z 0100/0124 11007KT P6SM SCT045
     FM010700 09004KT P6SM -RA OVC035
     FM011000 09005KT 5SM -RA SCT009 OVC025
     FM011500 13008KT 2SM RA BR OVC009
     FM011900 12005KT 1SM RA BR OVC005=



000
FTUS41 KPHI 302330
TAFPNE
TAF
KPNE 302330Z 0100/0124 15005KT P6SM OVC045
     FM010400 08005KT P6SM -RA OVC035
     FM010800 09009KT 3SM -RA SCT009 OVC025
     FM011300 11008KT 2SM RA BR OVC009
     FM011800 10006KT 1SM RA BR OVC004=



000
FTUS41 KPHI 302330
TAFRDG
TAF
KRDG 302330Z 0100/0124 15005KT P6SM OVC040
     FM010400 15005KT P6SM -RA OVC035
     FM010800 14007KT 5SM -RA BR SCT009 OVC025
     FM011200 13005KT 2SM RA BR OVC009
     FM011800 12003KT 1SM RA BR OVC004=



000
FTUS41 KPHI 302330
TAFABE
TAF
KABE 302330Z 0100/0124 20005KT P6SM BKN050
     FM010500 12006KT P6SM -RA OVC035
     FM010900 09008KT 5SM -RA BR SCT009 OVC025
     FM011300 11008KT 2SM RA BR OVC009
     FM011900 12006KT 1SM RA BR OVC004=



000
FTUS41 KPHI 302330
TAFILG
TAF
KILG 302330Z 0100/0124 15008KT P6SM OVC045
     FM010400 11006KT P6SM -RA OVC035
     FM010800 11008KT 5SM -RA SCT009 OVC025
     FM011300 13009KT 2SM RA BR OVC009
     FM011800 13005KT 1SM RA BR OVC004=



000
FTUS41 KPHI 302330
TAFACY
TAF
KACY 302330Z 0100/0124 12008KT P6SM SCT045
     FM010700 11005KT P6SM -RA OVC035
     FM011000 12008KT 5SM -RA SCT009 OVC025
     FM011600 13008KT 2SM RA BR OVC009
     FM011900 13007KT 1SM RA BR OVC005=



000
FTUS41 KPHI 302059 AAA
TAFPHL
TAF AMD
KPHL 302059Z 3021/0124 13005KT P6SM OVC045
     FM010600 11005KT P6SM -RA OVC035
     FM010800 09009KT 5SM -RA SCT009 OVC025
     FM011300 12010KT 2SM RA BR OVC009
     FM012200 06008KT 4SM -SHRA BR OVC025=



000
FTUS41 KPHI 301720
TAFILG
TAF
KILG 301720Z 3018/0118 13007KT P6SM SCT040 BKN200
     FM010600 09006KT P6SM -RA OVC035
     FM010800 11009KT 5SM -RA SCT009 OVC025
     FM011300 12009KT 2SM RA BR OVC009=



000
FTUS41 KPHI 301720
TAFABE
TAF
KABE 301720Z 3018/0118 15005KT P6SM BKN050
     FM010500 10009KT P6SM -RA OVC035
     FM010900 09009KT 3SM -RA SCT009 OVC025
     FM011200 11008KT 2SM RA BR OVC009=



000
FTUS41 KPHI 301720
TAFPNE
TAF
KPNE 301720Z 3018/0118 13007KT P6SM BKN050
     FM010600 11005KT P6SM -RA OVC035
     FM011000 09009KT 3SM -RA SCT009 OVC025
     FM011300 10008KT 2SM RA BR OVC009=



000
FTUS41 KPHI 301720
TAFPHL
TAF
KPHL 301720Z 3018/0124 12007KT P6SM BKN050
     FM010600 11005KT P6SM -RA OVC035
     FM010800 09009KT 5SM -RA SCT009 OVC025
     FM011300 12010KT 2SM RA BR OVC009
     FM012200 06008KT 4SM -SHRA BR OVC025=



000
FTUS41 KPHI 301720
TAFABE
TAF
KABE 301720Z 3018/0118 15005KT P6SM BKN050
     FM010500 10009KT P6SM -RA OVC035
     FM010900 09009KT 3SM -RA SCT009 OVC025
     FM011200 11008KT 2SM RA BR OVC009=



000
FTUS41 KPHI 301720
TAFACY
TAF
KACY 301720Z 3018/0118 10009KT P6SM BKN035
     FM010600 11003KT P6SM -RA SCT025 BKN040
     FM011000 09009KT 5SM -RA SCT009 BKN025
     FM011400 11009KT 2SM RA BR OVC009=



000
FTUS41 KPHI 301720
TAFRDG
TAF
KRDG 301720Z 3018/0118 14005KT P6SM BKN050
     FM010500 12005KT P6SM -RA OVC040
     FM010900 10009KT 3SM -RA SCT009 OVC025
     FM011200 11008KT 2SM RA BR OVC009=



000
FTUS41 KPHI 301720
TAFTTN
TAF
KTTN 301720Z 3018/0118 13007KT P6SM BKN050
     FM010600 09006KT P6SM -RA OVC035
     FM011000 10009KT 3SM -RA SCT009 OVC025
     FM011300 13008KT 2SM RA BR OVC009=



000
FTUS41 KPHI 301720
TAFMIV
TAF
KMIV 301720Z 3018/0118 10006KT P6SM OVC035
     FM010700 09003KT P6SM -RA SCT025 BKN040
     FM010900 09005KT 5SM -RA SCT009 BKN025
     FM011400 12008KT 2SM RA BR OVC009=



000
FTUS41 KPHI 301720
TAFILG
TAF
KILG 301720Z 3018/0118 13007KT P6SM SCT040 BKN200
     FM010600 09006KT P6SM -RA OVC035
     FM010800 11009KT 5SM -RA SCT009 OVC025
     FM011300 12009KT 2SM RA BR OVC009=



000
FTUS41 KPHI 301720
TAFPNE
TAF
KPNE 301720Z 3018/0118 13007KT P6SM BKN050
     FM010600 11005KT P6SM -RA OVC035
     FM011000 09009KT 3SM -RA SCT009 OVC025
     FM011300 10008KT 2SM RA BR OVC009=



000
FTUS41 KPHI 301720
TAFPHL
TAF
KPHL 301720Z 3018/0124 12007KT P6SM BKN050
     FM010600 11005KT P6SM -RA OVC035
     FM010800 09009KT 5SM -RA SCT009 OVC025
     FM011300 12010KT 2SM RA BR OVC009
     FM012200 06008KT 4SM -SHRA BR OVC025=



000
FTUS41 KPHI 301720
TAFACY
TAF
KACY 301720Z 3018/0118 10009KT P6SM BKN035
     FM010600 11003KT P6SM -RA SCT025 BKN040
     FM011000 09009KT 5SM -RA SCT009 BKN025
     FM011400 11009KT 2SM RA BR OVC009=



000
FTUS41 KPHI 301720
TAFMIV
TAF
KMIV 301720Z 3018/0118 10006KT P6SM OVC035
     FM010700 09003KT P6SM -RA SCT025 BKN040
     FM010900 09005KT 5SM -RA SCT009 BKN025
     FM011400 12008KT 2SM RA BR OVC009=



000
FTUS41 KPHI 301720
TAFTTN
TAF
KTTN 301720Z 3018/0118 13007KT P6SM BKN050
     FM010600 09006KT P6SM -RA OVC035
     FM011000 10009KT 3SM -RA SCT009 OVC025
     FM011300 13008KT 2SM RA BR OVC009=



000
FTUS41 KPHI 301456 AAA
TAFPHL
TAF AMD
KPHL 301456Z 3015/0118 10006KT P6SM BKN050
     FM301800 13007KT P6SM SCT040 BKN200
     FM010500 11005KT P6SM -RA SCT025 BKN040
     FM010800 09009KT 5SM -RA SCT008 BKN015
     FM011300 12010KT 2SM RA SCT007 BKN010=



000
FTUS41 KPHI 301456 AAA
TAFPHL
TAF AMD
KPHL 301456Z 3015/0118 10006KT P6SM BKN050
     FM301800 13007KT P6SM SCT040 BKN200
     FM010500 11005KT P6SM -RA SCT025 BKN040
     FM010800 09009KT 5SM -RA SCT008 BKN015
     FM011300 12010KT 2SM RA SCT007 BKN010=



    US Dept of Commerce
    National Oceanic and Atmospheric Administration
    National Weather Service
    1325 East West Highway
    Silver Spring, MD 20910
    Page Author: NWS Internet Services Team
Disclaimer
Information Quality
Credits
Glossary
Privacy Policy
Freedom of Information Act (FOIA)
About Us
Career Opportunities